Tiempo atmosférico en la estación meteorológica de Banyalbufar, Illes Balears (60 m.)



Fecha
DESCASC
Temp. máxima en grados centígrados (hora)
DESCASC
Temp. mínima en grados centígrados (hora)
DESCASC
Temp. media en grados centígrados
DESCASC
Racha de viento máxima en m/sg (hora)
DESCASC
Velocidad máxima media en intervalos de 10 minutos(hora)
DESCASC
Precipitaciones diarias en mm
DESCASC
Precipitaciones de 00:00 a 06:00 en mm
DESCASC
Precipitaciones de 06:00 a 12:00 en mm
DESCASC
Precipitaciones de 12:00 a 18:00 en mm
DESCASC
Precipitaciones de 18:00 a 24:00 en mm
DESCASC
23-06-2019 25.1 (18:50) 18.1 (05:30) 21.6 4.44 (22:10) 2.78 (11:20) 0 0 0 0 0
22-06-2019 24.1 (19:00) 18.3 (06:20) 21.2 6.67 (16:40) 4.72 (16:00) 0 0 0 0 0
21-06-2019 23.1 (11:40) 19.2 (00:30) 21.2 8.61 (10:20) 4.72 (18:40) -- 0 0 -- 0
20-06-2019 24.7 (16:50) 18.8 (00:00) 21.8 7.5 (09:50) 5.28 (10:10) 0 0 0 0 0
19-06-2019 -- (--) -- (--) -- -- (--) -- (--) -- -- -- -- 0
18-06-2019 -- (--) -- (--) -- -- (--) -- (--) -- 0 0 0 --
17-06-2019 25 (16:10) 17.2 (00:00) 21.1 4.17 (14:30) 2.78 (23:59) 0 0 0 0 0
16-06-2019 22 (15:20) 17.3 (00:00) 19.6 10 (11:40) 6.11 (11:40) 0 0 0 0 0
15-06-2019 24.2 (17:40) 18.6 (00:00) 21.4 6.94 (23:40) 3.89 (23:40) 0 0 0 0 0
14-06-2019 25.8 (21:40) 19.3 (00:00) 22.5 10.83 (11:20) 5.56 (11:40) 0 0 0 0 0
13-06-2019 23.6 (16:20) 16.3 (00:00) 19.9 9.17 (18:00) 5.83 (17:30) 0 0 0 0 0
12-06-2019 21.8 (18:20) 15.3 (00:00) 18.5 10.83 (23:00) 5.28 (00:50) 0.4 0.4 0 0 0
11-06-2019 26 (14:40) 15.8 (00:00) 20.9 11.67 (19:20) 8.06 (18:50) 0 0 0 0 0
10-06-2019 23 (15:20) 17.2 (00:00) 20.1 11.11 (09:50) 6.67 (09:30) 0 0 0 0 0
09-06-2019 22.3 (13:50) 17.7 (00:00) 20 9.17 (08:10) 4.44 (08:10) 0 0 0 0 0
08-06-2019 22 (00:00) 18.4 (00:00) 20.2 11.11 (11:10) 7.5 (10:30) 0 0 0 0 0
07-06-2019 24.9 (20:30) 18.8 (00:00) 21.8 16.67 (03:10) 7.78 (03:10) 0 0 0 0 0
06-06-2019 23.8 (18:00) 16.9 (00:00) 20.3 16.67 (22:50) 9.44 (23:20) 0 0 0 0 0
05-06-2019 25.2 (15:50) 17.9 (00:00) 21.6 13.06 (15:20) 6.39 (14:50) 0 0 0 0 0
04-06-2019 26.9 (12:40) 17.6 (00:00) 22.3 6.94 (17:30) 5 (17:20) 0 0 0 0 0
03-06-2019 24.3 (16:20) 17 (00:00) 20.6 5 (19:30) 3.61 (19:20) 0 0 0 0 0
02-06-2019 24.1 (16:00) 16.4 (00:00) 20.3 4.44 (14:00) 3.33 (14:00) 0 0 0 0 0
01-06-2019 24.2 (16:40) 15.9 (00:00) 20.1 3.33 (15:10) 2.5 (23:59) 0 0 0 0 0
31-05-2019 22.7 (16:40) 15.4 (00:00) 19.1 5.56 (11:30) 3.89 (11:20) 0 0 0 0 0
30-05-2019 22.1 (17:30) 14.3 (00:00) 18.2 5.28 (07:00) 3.33 (08:50) 0 0 0 0 0
29-05-2019 20.4 (15:10) 14.6 (00:00) 17.5 11.11 (16:00) 5.28 (15:40) 0 0 0 0 0
28-05-2019 20.5 (16:20) 16.1 (00:00) 18.3 5.83 (21:10) 3.61 (19:00) 0 0 0 0 0
27-05-2019 22.1 (12:30) 15.1 (00:00) 18.6 6.94 (16:20) 4.44 (16:20) 0 0 0 0 0
26-05-2019 20.6 (18:40) 15.2 (00:00) 17.9 6.39 (08:10) 3.89 (08:10) 1.4 0 1.4 0 0
25-05-2019 17.3 (17:00) 15.2 (00:00) 16.2 8.61 (12:50) 5.56 (12:10) 0 0 0 0 0

Gráficas

Temp. máximas Temp. mínimas Temp. medias Precipitaciones Rachas de viento máximas Velocidades máximas media en intervalos de 10 minutos

Datos horarios

Fecha y hora oficial Temperatura (ºC) Velocidad del viento (km/h) Dirección del viento Racha (km/h) Dirección de racha Precipitación (mm) Presión (hPa) Tendencia (hPa) Humedad (%)
2019-06-23 23:00:00 22.2 3 Sudoeste 16 Oeste 0 -- -- 77
2019-06-23 22:00:00 22.3 8 Sudoeste 15 Oeste 0 -- -- 84
2019-06-23 21:00:00 23.4 3 Noroeste 6 Norte 0 -- -- 80
2019-06-23 20:00:00 24.3 3 Norte 8 Norte 0 -- -- 77
2019-06-23 19:00:00 24.9 4 Norte 9 Norte 0 -- -- 75
2019-06-23 18:00:00 24.7 6 Norte 11 Norte 0 -- -- 72
2019-06-23 17:00:00 24.6 6 Norte 11 Norte 0 -- -- 75
2019-06-23 16:00:00 24.1 5 Norte 10 Norte 0 -- -- 77
2019-06-23 15:00:00 24.1 7 Norte 13 Norte 0 -- -- 80
2019-06-23 14:00:00 23.8 9 Norte 13 Norte 0 -- -- 79
2019-06-23 13:00:00 23.7 8 Norte 13 Norte 0 -- -- 77
2019-06-23 12:00:00 23.6 9 Norte 14 Norte 0 -- -- 74
2019-06-23 11:00:00 24.1 8 Norte 15 Nordeste 0 -- -- 67
2019-06-23 10:00:00 24.2 6 Nordeste 15 Nordeste 0 -- -- 68
2019-06-23 09:00:00 23.6 9 Nordeste 14 Nordeste 0 -- -- 66
2019-06-23 08:00:00 22.7 5 Sudeste 12 Sudeste 0 -- -- 73
2019-06-23 07:00:00 19.9 8 Sudeste 13 Sudeste 0 -- -- 86
2019-06-23 06:00:00 18.2 6 Sur 13 Sur 0 -- -- 88
2019-06-23 05:00:00 18.2 9 Sur 12 Sur 0 -- -- 90
2019-06-23 04:00:00 18.6 5 Sur 9 Sur 0 -- -- 91
2019-06-23 03:00:00 19.2 4 Sur 9 Sur 0 -- -- 88
2019-06-23 02:00:00 19.7 4 Sur 9 Sur 0 -- -- 87
2019-06-23 01:00:00 19 5 Sur 10 Sur 0 -- -- 85
2019-06-23 00:00:00 19.2 7 Sur 10 Sur 0 -- -- 86
2019-06-22 23:00:00 19.4 6 Sur 9 Sur 0 -- -- 88
2019-06-22 22:00:00 20.7 3 Sudeste 6 Este 0 -- -- 88
2019-06-22 21:00:00 21.6 3 Norte 8 Noroeste 0 -- -- 84
2019-06-22 20:00:00 23.9 5 Noroeste 13 Noroeste 0 -- -- 76
2019-06-22 19:00:00 24.1 6 Noroeste 19 Noroeste 0 -- -- 76
2019-06-22 18:00:00 23.9 9 Noroeste 22 Oeste 0 -- -- 75
2019-06-22 17:00:00 22.6 14 Oeste 24 Oeste 0 -- -- 75
2019-06-22 16:00:00 23.1 17 Oeste 24 Oeste 0 -- -- 68
2019-06-22 15:00:00 23.3 6 Norte 19 Norte 0 -- -- 70
2019-06-22 14:00:00 22.8 11 Norte 22 Nordeste 0 -- -- 74
2019-06-22 13:00:00 23.1 14 Nordeste 23 Nordeste 0 -- -- 73
2019-06-22 12:00:00 23.2 6 Noroeste 14 Norte 0 -- -- 72
2019-06-22 11:00:00 23.2 5 Noroeste 12 Noroeste 0 -- -- 74
2019-06-22 10:00:00 22.7 8 Noroeste 18 Oeste 0 -- -- 78
2019-06-22 09:00:00 22.2 9 Oeste 16 Oeste 0 -- -- 78
2019-06-22 08:00:00 21.6 3 Nordeste 10 Sur 0 -- -- 80
2019-06-22 07:00:00 18.3 8 Sur 12 Sur 0 -- -- 86
2019-06-22 06:00:00 18.6 5 Sudeste 10 Sudeste 0 -- -- 86
2019-06-22 05:00:00 18.9 6 Sudeste 14 Sudeste 0 -- -- 89
2019-06-22 04:00:00 19.2 7 Sudeste 13 Este 0 -- -- 92
2019-06-22 03:00:00 20.2 8 Este 17 Nordeste 0 -- -- 93
2019-06-22 02:00:00 20.4 7 Nordeste 15 Nordeste 0 -- -- 93
2019-06-22 01:00:00 20.7 8 Nordeste 18 Este 0 -- -- 91
2019-06-22 00:00:00 20.9 6 Nordeste 16 Nordeste 0 -- -- 90
2019-06-21 23:00:00 21 4 Nordeste 13 Este 0 -- -- 86
2019-06-21 22:00:00 21.3 8 Sudeste 19 Nordeste 0 -- -- 89
2019-06-21 21:00:00 22.5 3 Este 17 Sudeste 0 -- -- 84
2019-06-21 20:00:00 22.4 12 Nordeste 27 Nordeste 0 -- -- 88
2019-06-21 19:00:00 22.7 15 Nordeste 26 Nordeste 0 -- -- 89
2019-06-21 18:00:00 22 16 Nordeste 25 Nordeste 0 -- -- 94
2019-06-21 17:00:00 22 13 Nordeste 22 Nordeste 0 -- -- 96
2019-06-21 16:00:00 21.8 11 Nordeste 20 Norte 0 -- -- 94
2019-06-21 15:00:00 22.7 5 Norte 8 Norte 0 -- -- 85
2019-06-21 14:00:00 22.5 3 Nordeste -- -- -- -- -- 88
2019-06-21 13:00:00 -- 6 Norte 13 Noroeste 0 -- -- --
2019-06-21 12:00:00 22.5 9 Norte 19 Noroeste 0 -- -- 84
2019-06-21 11:00:00 21.5 8 Norte 31 Norte 0 -- -- 89
2019-06-21 10:00:00 21.3 9 Sudoeste 24 Sudoeste 0 -- -- 89
2019-06-21 09:00:00 21.3 9 Sur 20 Oeste 0 -- -- 88
2019-06-21 08:00:00 21.3 6 Oeste 13 Oeste 0 -- -- 89
2019-06-21 07:00:00 20.2 4 Sur 9 Sur 0 -- -- 93
2019-06-21 06:00:00 19.7 4 Sur 15 Sudeste 0 -- -- 92
2019-06-21 05:00:00 19.8 7 Sudeste 11 Sudeste 0 -- -- 90
2019-06-21 04:00:00 19.5 5 Sur 8 Sur 0 -- -- 90
2019-06-21 03:00:00 20.1 5 Sur 9 Sur 0 -- -- 86
2019-06-21 02:00:00 19.5 7 Sur 12 Sur 0 -- -- 81
2019-06-21 01:00:00 19.5 6 Sur 10 Sur 0 -- -- 77
2019-06-21 00:00:00 20.9 3 Sur 11 Sur 0 -- -- 81
2019-06-20 23:00:00 20.4 5 Sudoeste 15 Sudeste 0 -- -- 74
2019-06-20 22:00:00 21.3 6 Nordeste 10 Nordeste 0 -- -- 93
2019-06-20 21:00:00 22.3 4 Norte 7 Norte 0 -- -- 88
2019-06-20 20:00:00 22.2 3 Norte 6 Norte 0 -- -- 89
2019-06-20 19:00:00 22.6 5 Norte 9 Norte 0 -- -- 86
2019-06-20 18:00:00 23.7 6 Norte 11 Norte 0 -- -- 82
2019-06-20 17:00:00 24.4 6 Norte 10 Norte 0 -- -- 76
2019-06-20 16:00:00 24 7 Norte 11 Noroeste 0 -- -- 81
2019-06-20 15:00:00 23.9 7 Norte 11 Noroeste 0 -- -- 83
2019-06-20 14:00:00 23.5 7 Norte 13 Norte 0 -- -- 84
2019-06-20 13:00:00 22.8 9 Norte 20 Norte 0 -- -- 85
2019-06-20 12:00:00 22.7 13 Norte 24 Nordeste 0 -- -- 85
2019-06-20 11:00:00 22.5 15 Nordeste 27 Nordeste 0 -- -- 85
2019-06-20 10:00:00 21.9 16 Nordeste 27 Nordeste 0 -- -- 89
2019-06-20 09:00:00 21.7 16 Nordeste 27 Nordeste 0 -- -- 86
2019-06-20 08:00:00 21.4 9 Nordeste 17 Nordeste 0 -- -- 87
2019-06-20 07:00:00 19.8 6 Sudeste 12 Sudeste 0 -- -- 89
2019-06-20 06:00:00 19 6 Sur 11 Sudeste 0 -- -- 88
2019-06-20 05:00:00 19.9 7 Sur 12 Sur 0 -- -- 85
2019-06-20 04:00:00 19.5 6 Sur 10 Sur 0 -- -- 85
2019-06-20 03:00:00 20 3 Sur 9 Sur 0 -- -- 79
2019-06-20 02:00:00 19.5 6 Sur 12 Sur 0 -- -- 67
2019-06-20 01:00:00 19.8 7 Sur 10 Sur 0 -- -- 65
2019-06-20 00:00:00 19.8 4 Sur 12 Sur 0 -- -- 77
2019-06-19 23:00:00 20.6 6 Sur 12 Sur 0 -- -- 81
2019-06-19 22:00:00 21.5 8 Sudoeste 12 Sur 0 -- -- 85
2019-06-19 21:00:00 23.3 5 Norte 11 Norte 0 -- -- 78
2019-06-19 20:00:00 24.5 6 Norte 14 Norte 0 -- -- 73
2019-06-19 19:00:00 24.8 7 Norte 15 Norte 0 -- -- 69
2019-06-19 18:00:00 25 9 Norte 15 Norte 0 -- -- 66
2019-06-19 17:00:00 25 8 Norte 16 Norte 0 -- -- 74
2019-06-19 16:00:00 24.4 10 Norte 16 Norte 0 -- -- 76
2019-06-19 15:00:00 25.1 6 Norte -- -- -- -- -- 69
2019-06-19 14:00:00 24.5 8 Norte 15 Norte 0 -- -- 74
2019-06-19 13:00:00 24.2 6 Norte 13 Norte 0 -- -- 77
2019-06-19 12:00:00 23.4 5 Norte 17 Norte 0 -- -- 75
2019-06-19 11:00:00 23.8 5 Norte 11 Norte 0 -- -- 73
2019-06-19 10:00:00 23.4 6 Norte 14 Norte 0 -- -- 74
2019-06-19 09:00:00 23.6 4 Norte 8 Nordeste 0 -- -- 61
2019-06-19 08:00:00 23.3 4 Sur 10 Sur 0 -- -- 44
2019-06-19 07:00:00 19.8 5 Sudeste -- -- -- -- -- 52
2019-06-19 06:00:00 -- -- -- -- -- -- -- -- --
2019-06-19 05:00:00 -- -- -- -- -- -- -- -- --
2019-06-19 04:00:00 -- -- -- -- -- -- -- -- --
2019-06-19 03:00:00 -- -- -- -- -- -- -- -- --
2019-06-19 02:00:00 -- -- -- -- -- -- -- -- --
2019-06-19 01:00:00 -- -- -- -- -- -- -- -- --
2019-06-19 00:00:00 -- -- -- -- -- -- -- -- --
2019-06-18 23:00:00 -- -- -- -- -- -- -- -- --
2019-06-18 22:00:00 -- -- -- -- -- -- -- -- --
2019-06-18 21:00:00 -- -- -- -- -- -- -- -- --
2019-06-18 20:00:00 -- -- -- -- -- -- -- -- --
2019-06-18 19:00:00 24.2 11 Norte 17 Norte 0 -- -- 69
2019-06-18 18:00:00 25 9 Norte 15 Norte 0 -- -- 65
2019-06-18 17:00:00 24.1 12 Norte 18 Norte 0 -- -- 64
2019-06-18 16:00:00 24.4 9 Norte 13 Norte 0 -- -- 62
2019-06-18 15:00:00 23.9 10 Norte 17 Norte 0 -- -- 68
2019-06-18 14:00:00 23.5 8 Norte 13 Norte 0 -- -- 72
2019-06-18 13:00:00 23.9 5 Norte 10 Norte 0 -- -- 66
2019-06-18 12:00:00 23.2 6 Norte 11 Norte 0 -- -- 70
2019-06-18 11:00:00 22.4 6 Norte 10 Norte 0 -- -- 74
2019-06-18 10:00:00 22.6 3 Norte 5 Norte 0 -- -- 70
2019-06-18 09:00:00 23.4 2 Norte 4 Sur 0 -- -- 56
2019-06-18 08:00:00 22.9 0 Calma 10 Sur 0 -- -- 56
2019-06-18 07:00:00 18.3 7 Sur 13 Sur 0 -- -- 58
2019-06-18 06:00:00 18 6 Sur 13 Sur 0 -- -- 61
2019-06-18 05:00:00 17.9 6 Sur 12 Sur 0 -- -- 65
2019-06-18 04:00:00 18.2 9 Sur 12 Sur 0 -- -- 63
2019-06-18 03:00:00 18.5 8 Sur 10 Sur 0 -- -- 63
2019-06-18 02:00:00 18.8 8 Sur 12 Sur 0 -- -- 60
2019-06-18 01:00:00 19.6 5 Sur 11 Sur 0 -- -- 57
2019-06-18 00:00:00 19.7 10 Sur 13 Sur 0 -- -- 55
2019-06-17 23:00:00 20.2 8 Sur 12 Sur 0 -- -- 57
2019-06-17 22:00:00 21.2 4 Sur 11 Norte 0 -- -- 56
2019-06-17 21:00:00 23.2 5 Nordeste 13 Nordeste 0 -- -- 58
2019-06-17 20:00:00 24.3 6 Norte 12 Noroeste 0 -- -- 52
2019-06-17 19:00:00 24.3 6 Norte 10 Noroeste 0 -- -- 54
2019-06-17 18:00:00 25 6 Noroeste 14 Norte 0 -- -- 51
2019-06-17 17:00:00 24.1 7 Norte 15 Noroeste 0 -- -- 65
2019-06-17 16:00:00 24.5 6 Norte 10 Norte 0 -- -- 61
2019-06-17 15:00:00 23.5 5 Norte 15 Norte 0 -- -- 68
2019-06-17 14:00:00 24.2 8 Noroeste 15 Norte 0 -- -- 66
2019-06-17 13:00:00 23.7 7 Noroeste 13 Noroeste 0 -- -- 63
2019-06-17 12:00:00 22.7 5 Norte 8 Norte 0 -- -- 67
2019-06-17 11:00:00 23.6 3 Noroeste 8 Nordeste 0 -- -- 60
2019-06-17 10:00:00 22.5 4 Norte 9 Norte 0 -- -- 67
2019-06-17 09:00:00 22.9 2 Norte 4 Noroeste 0 -- -- 63
2019-06-17 08:00:00 21.7 0 Calma 8 Sudeste 0 -- -- 71
2019-06-17 07:00:00 17.7 4 Sudeste 12 Sur 0 -- -- 81
2019-06-17 06:00:00 17.4 6 Sur 11 Sur 0 -- -- 81
2019-06-17 05:00:00 17.9 5 Sur 10 Sur 0 -- -- 82
2019-06-17 04:00:00 18.6 6 Sudeste 14 Sudoeste 0 -- -- 81
2019-06-17 03:00:00 18.4 7 Sudoeste 10 Sudoeste 0 -- -- 85
2019-06-17 02:00:00 18.4 6 Sur 9 Sur 0 -- -- 86
2019-06-17 01:00:00 19.2 4 Sudoeste 10 Sudeste 0 -- -- 84
2019-06-17 00:00:00 18.9 5 Sur 9 Oeste 0 -- -- 80
2019-06-16 23:00:00 19.7 5 Sudoeste 12 Oeste 0 -- -- 82
2019-06-16 22:00:00 19.6 4 Este 15 Oeste 0 -- -- 82
2019-06-16 21:00:00 20.3 2 Sudoeste 10 Oeste 0 -- -- 79
2019-06-16 20:00:00 20.9 7 Oeste 21 Oeste 0 -- -- 75
2019-06-16 19:00:00 21.3 12 Oeste 18 Noroeste 0 -- -- 69
2019-06-16 18:00:00 21.3 4 Norte 15 Norte 0 -- -- 72
2019-06-16 17:00:00 21.6 10 Norte 19 Norte 0 -- -- 73
2019-06-16 16:00:00 21.9 13 Norte 24 Norte 0 -- -- 70
2019-06-16 15:00:00 21.8 15 Nordeste 27 Nordeste 0 -- -- 72
2019-06-16 14:00:00 21.4 17 Nordeste 32 Nordeste 0 -- -- 72
2019-06-16 13:00:00 21 20 Nordeste 31 Nordeste 0 -- -- 72
2019-06-16 12:00:00 21.1 20 Nordeste 36 Nordeste 0 -- -- 72
2019-06-16 11:00:00 21.2 19 Nordeste 28 Nordeste 0 -- -- 71
2019-06-16 10:00:00 21.7 3 Noroeste 8 Norte 0 -- -- 72
2019-06-16 09:00:00 21.4 4 Norte 9 Norte 0 -- -- 84
2019-06-16 08:00:00 20.7 0 Calma 8 Sur 0 -- -- 80
2019-06-16 07:00:00 17.7 7 Sur 11 Sur 0 -- -- 78
2019-06-16 06:00:00 17.4 7 Sur 12 Sur 0 -- -- 77
2019-06-16 05:00:00 17.5 6 Sur 9 Sur 0 -- -- 75
2019-06-16 04:00:00 17.6 6 Sur 10 Sudeste 0 -- -- 73
2019-06-16 03:00:00 18.1 7 Sudeste 12 Sur 0 -- -- 77
2019-06-16 02:00:00 17.7 8 Sur 14 Sur 0 -- -- 76
2019-06-16 01:00:00 17.9 11 Sur 19 Nordeste 0 -- -- 86
2019-06-16 00:00:00 19.8 9 Nordeste 25 Este 0 -- -- 91
2019-06-15 23:00:00 19.4 3 Sudeste 10 Sur 0 -- -- 80
2019-06-15 22:00:00 19.3 5 Sur 19 Nordeste 0 -- -- 86
2019-06-15 21:00:00 21.5 11 Nordeste 19 Nordeste 0 -- -- 85
2019-06-15 20:00:00 22.8 10 Nordeste 19 Nordeste 0 -- -- 80
2019-06-15 19:00:00 23.8 8 Norte 13 Norte 0 -- -- 78
2019-06-15 18:00:00 23.7 9 Norte 15 Norte 0 -- -- 79
2019-06-15 17:00:00 23.8 7 Norte 13 Norte 0 -- -- 74
2019-06-15 16:00:00 23 9 Norte 13 Norte 0 -- -- 76
2019-06-15 15:00:00 22.9 9 Norte 13 Norte 0 -- -- 77
2019-06-15 14:00:00 22.7 9 Norte 19 Norte 0 -- -- 74
2019-06-15 13:00:00 22.5 12 Norte 16 Norte 0 -- -- 78
2019-06-15 12:00:00 22 7 Norte 13 Norte 0 -- -- 75
2019-06-15 11:00:00 22.9 4 Norte 9 Noroeste 0 -- -- 69
2019-06-15 10:00:00 22.3 4 Norte 8 Norte 0 -- -- 71
2019-06-15 09:00:00 22.6 3 Norte 6 Norte 0 -- -- 62
2019-06-15 08:00:00 22.5 3 Sur 9 Sudeste 0 -- -- 62
2019-06-15 07:00:00 19.2 7 Sudoeste 13 Sudeste 0 -- -- 70
2019-06-15 06:00:00 18.9 10 Sudeste 14 Sur 0 -- -- 65
2019-06-15 05:00:00 19.1 8 Sudeste 13 Sudeste 0 -- -- 66
2019-06-15 04:00:00 19.4 6 Sur 13 Sudoeste 0 -- -- 48
2019-06-15 03:00:00 20.2 10 Sur 14 Sur 0 -- -- 46
2019-06-15 02:00:00 20 7 Sur 11 Sur 0 -- -- 57
2019-06-15 01:00:00 20.5 4 Sudeste 9 Sur 0 -- -- 61
2019-06-15 00:00:00 21.6 5 Sudeste 10 Sur 0 -- -- 61
2019-06-14 23:00:00 22.2 3 Sur 10 Sur 0 -- -- 61
2019-06-14 22:00:00 23.8 5 Norte 33 Sudoeste 0 -- -- 56
2019-06-14 21:00:00 23.4 5 Nordeste 12 Nordeste 0 -- -- 64
2019-06-14 20:00:00 24.2 4 Nordeste 18 Noroeste 0 -- -- 62
2019-06-14 19:00:00 23.1 15 Oeste 25 Oeste 0 -- -- 62
2019-06-14 18:00:00 23.8 13 Oeste 31 Oeste 0 -- -- 54
2019-06-14 17:00:00 21.7 16 Oeste 29 Oeste 0 -- -- 67
2019-06-14 16:00:00 21.9 20 Oeste 31 Oeste 0 -- -- 65
2019-06-14 15:00:00 21.7 15 Sudoeste 29 Oeste 0 -- -- 70
2019-06-14 14:00:00 20.8 12 Oeste 30 Oeste 0 -- -- 77
2019-06-14 13:00:00 19.6 13 Oeste 36 Oeste 0 -- -- 89
2019-06-14 12:00:00 19.5 15 Oeste 39 Oeste 0 -- -- 93
2019-06-14 11:00:00 19.5 14 Oeste 31 Noroeste 0 -- -- 95
2019-06-14 10:00:00 19.8 10 Oeste 22 Oeste 0 -- -- 96
2019-06-14 09:00:00 19.9 6 Noroeste 17 Norte 0 -- -- 97
2019-06-14 08:00:00 19.7 14 Norte 21 Noroeste 0 -- -- 98
2019-06-14 07:00:00 19.8 12 Oeste 26 Oeste 0 -- -- 97
2019-06-14 06:00:00 19.4 5 Oeste 13 Oeste 0 -- -- 99
2019-06-14 05:00:00 19.5 9 Nordeste 22 Nordeste 0 -- -- 99
2019-06-14 04:00:00 19.4 14 Nordeste 26 Nordeste 0 -- -- 98
2019-06-14 03:00:00 19.6 11 Nordeste 20 Este 0 -- -- 92
2019-06-14 02:00:00 20 3 Nordeste 14 Nordeste 0 -- -- 87
2019-06-14 01:00:00 20.3 4 Sudoeste 19 Nordeste 0 -- -- 77
2019-06-14 00:00:00 20.7 3 Sur 8 Sudeste 0 -- -- 77
2019-06-13 23:00:00 21.1 4 Sur 11 Sur 0 -- -- 73
2019-06-13 22:00:00 20.9 4 Sur 14 Oeste 0 -- -- 79
2019-06-13 21:00:00 21.5 7 Sudoeste 14 Sudoeste 0 -- -- 83
2019-06-13 20:00:00 22.1 4 Norte 24 Norte 0 -- -- 81
2019-06-13 19:00:00 22.1 15 Nordeste 30 Nordeste 0 -- -- 77
2019-06-13 18:00:00 22.1 20 Nordeste 33 Nordeste 0 -- -- 75
2019-06-13 17:00:00 23 17 Nordeste 29 Nordeste 0 -- -- 70
2019-06-13 16:00:00 23.2 6 Norte 26 Nordeste 0 -- -- 74
2019-06-13 15:00:00 22.2 19 Nordeste 30 Nordeste 0 -- -- 72
2019-06-13 14:00:00 21.5 18 Nordeste 28 Nordeste 0 -- -- 75
2019-06-13 13:00:00 23 9 Norte 22 Norte 0 -- -- 66
2019-06-13 12:00:00 21.4 17 Norte 30 Nordeste 0 -- -- 69
2019-06-13 11:00:00 21.5 5 Noroeste 13 Norte 0 -- -- 65
2019-06-13 10:00:00 20.7 9 Norte 17 Norte 0 -- -- 70
2019-06-13 09:00:00 19.7 8 Norte 18 Nordeste 0 -- -- 74
2019-06-13 08:00:00 19.3 14 Nordeste 24 Nordeste 0 -- -- 67
2019-06-13 07:00:00 18.7 9 Este 17 Este 0 -- -- 62
2019-06-13 06:00:00 17.1 3 Sudeste 13 Sudeste 0 -- -- 71
2019-06-13 05:00:00 16.3 7 Sur 13 Sur 0 -- -- 77
2019-06-13 04:00:00 16.4 9 Sur 12 Sur 0 -- -- 76
2019-06-13 03:00:00 16.7 9 Sur 13 Sur 0 -- -- 73
2019-06-13 02:00:00 17.6 6 Sur 20 Sudeste 0 -- -- 69
2019-06-13 01:00:00 19 13 Sudeste 25 Sudeste 0 -- -- 62
2019-06-13 00:00:00 18.4 6 Sudeste 35 Sudeste 0 -- -- 67
2019-06-12 23:00:00 18.7 14 Sudeste 39 Sudeste 0 -- -- 68
2019-06-12 22:00:00 18.7 2 Este 5 Sur 0 -- -- 74
2019-06-12 21:00:00 19.9 3 Norte 8 Noroeste 0 -- -- 68
2019-06-12 20:00:00 21.1 5 Norte 9 Noroeste 0 -- -- 65
2019-06-12 19:00:00 21.3 5 Norte 10 Norte 0 -- -- 64
2019-06-12 18:00:00 21.1 6 Norte 17 Norte 0 -- -- 63
2019-06-12 17:00:00 20.2 13 Norte 20 Norte 0 -- -- 68
2019-06-12 16:00:00 20.8 11 Nordeste 21 Nordeste 0 -- -- 64
2019-06-12 15:00:00 19.9 13 Norte 19 Norte 0 -- -- 68
2019-06-12 14:00:00 20.1 8 Norte 15 Norte 0 -- -- 65
2019-06-12 13:00:00 19.3 6 Norte 12 Norte 0 -- -- 67
2019-06-12 12:00:00 19.3 7 Norte 15 Norte 0 -- -- 68
2019-06-12 11:00:00 18.1 9 Norte 15 Norte 0 -- -- 72
2019-06-12 10:00:00 18 8 Norte 16 Norte 0 -- -- 76
2019-06-12 09:00:00 17.8 10 Nordeste 20 Nordeste 0 -- -- 80
2019-06-12 08:00:00 17.3 9 Norte 20 Nordeste 0 -- -- 82
2019-06-12 07:00:00 16.5 6 Sudeste 15 Sudeste 0 -- -- 82
2019-06-12 06:00:00 16.3 7 Sudeste 17 Sudeste 0 -- -- 83
2019-06-12 05:00:00 16.4 7 Este 22 Nordeste 0 -- -- 84
2019-06-12 04:00:00 16.7 9 Este 19 Este 0 -- -- 81
2019-06-12 03:00:00 15.9 12 Sur 18 Sur 0 -- -- 78
2019-06-12 02:00:00 15.5 15 Sudeste 30 Sudeste 0.4 -- -- 89
2019-06-12 01:00:00 16.2 14 Nordeste 29 Nordeste 0 -- -- 84
2019-06-12 00:00:00 16.2 18 Nordeste 34 Nordeste 0 -- -- 90
2019-06-11 23:00:00 16.1 19 Nordeste 36 Nordeste 0 -- -- 92
2019-06-11 22:00:00 16.2 22 Norte 40 Norte 0 -- -- 93
2019-06-11 21:00:00 16.9 21 Norte 39 Norte 0 -- -- 93
2019-06-11 20:00:00 17.1 23 Norte 42 Norte 0 -- -- 93
2019-06-11 19:00:00 17.7 27 Norte 42 Norte 0 -- -- 91
2019-06-11 18:00:00 18.8 17 Norte 31 Norte 0 -- -- 84
2019-06-11 17:00:00 22.9 14 Oeste 24 Oeste 0 -- -- 70
2019-06-11 16:00:00 23.9 10 Oeste 30 Norte 0 -- -- 67
2019-06-11 15:00:00 25.4 8 Sur 30 Este 0 -- -- 49
2019-06-11 14:00:00 24 11 Noroeste 24 Oeste 0 -- -- 60
2019-06-11 13:00:00 22.3 10 Norte 15 Norte 0 -- -- 73
2019-06-11 12:00:00 21.4 10 Norte 21 Norte 0 -- -- 73
2019-06-11 11:00:00 21.7 9 Norte 19 Norte 0 -- -- 69
2019-06-11 10:00:00 20.9 5 Norte 13 Norte 0 -- -- 69
2019-06-11 09:00:00 21.8 5 Nordeste 17 Nordeste 0 -- -- 65
2019-06-11 08:00:00 20.7 9 Este 21 Este 0 -- -- 72
2019-06-11 07:00:00 18 2 Sudoeste 12 Sur 0 -- -- 83
2019-06-11 06:00:00 17.4 9 Sur 12 Sur 0 -- -- 80
2019-06-11 05:00:00 17.7 8 Sur 11 Sur 0 -- -- 79
2019-06-11 04:00:00 18.1 9 Sur 12 Sur 0 -- -- 77
2019-06-11 03:00:00 19.2 3 Sudeste 21 Sur 0 -- -- 71
2019-06-11 02:00:00 19.8 9 Sur 22 Sur 0 -- -- 69
2019-06-11 01:00:00 20.4 12 Sur 32 Sur 0 -- -- 68
2019-06-11 00:00:00 20.4 4 Este 16 Sudoeste 0 -- -- 75
2019-06-10 23:00:00 20.4 0 Calma 10 Norte 0 -- -- 77
2019-06-10 22:00:00 20.1 3 Noroeste 7 Oeste 0 -- -- 76
2019-06-10 21:00:00 20.7 0 Calma 8 Norte 0 -- -- 72
2019-06-10 20:00:00 21.5 6 Norte 11 Norte 0 -- -- 66
2019-06-10 19:00:00 21.9 8 Norte 13 Norte 0 -- -- 70
2019-06-10 18:00:00 21.8 8 Norte 14 Norte 0 -- -- 74
2019-06-10 17:00:00 22 9 Norte 16 Norte 0 -- -- 71
2019-06-10 16:00:00 22.4 8 Norte 12 Norte 0 -- -- 74
2019-06-10 15:00:00 22.2 9 Norte 12 Norte 0 -- -- 75
2019-06-10 14:00:00 21.6 8 Norte 13 Norte 0 -- -- 77
2019-06-10 13:00:00 21.3 9 Norte 17 Norte 0 -- -- 81
2019-06-10 12:00:00 21.3 11 Norte 17 Norte 0 -- -- 82
2019-06-10 11:00:00 21.3 8 Nordeste 31 Nordeste 0 -- -- 79
2019-06-10 10:00:00 21.6 22 Nordeste 40 Nordeste 0 -- -- 64
2019-06-10 09:00:00 21.9 22 Nordeste 34 Nordeste 0 -- -- 66
2019-06-10 08:00:00 21.2 10 Nordeste 30 Nordeste 0 -- -- 71
2019-06-10 07:00:00 19.8 7 Sudeste 18 Este 0 -- -- 75
2019-06-10 06:00:00 19.3 7 Este 14 Este 0 -- -- 82
2019-06-10 05:00:00 17.9 3 Sudeste 9 Nordeste 0 -- -- 93
2019-06-10 04:00:00 17.6 4 Este 11 Este 0 -- -- 92
2019-06-10 03:00:00 17.5 5 Sur 9 Sudeste 0 -- -- 93
2019-06-10 02:00:00 18 4 Sudeste 10 Norte 0 -- -- 92
2019-06-10 01:00:00 18.9 4 Sudeste 9 Sudeste 0 -- -- 91
2019-06-10 00:00:00 18.2 5 Sur 8 Sur 0 -- -- 90
2019-06-09 23:00:00 19.2 3 Nordeste 9 Noroeste 0 -- -- 89
2019-06-09 22:00:00 19.3 5 Noroeste 10 Oeste 0 -- -- 88
2019-06-09 21:00:00 19.3 3 Noroeste 7 Sur 0 -- -- 88
2019-06-09 20:00:00 19.8 4 Norte 10 Noroeste 0 -- -- 85
2019-06-09 19:00:00 20.2 7 Noroeste 14 Noroeste 0 -- -- 82
2019-06-09 18:00:00 20.3 5 Norte 9 Norte 0 -- -- 83
2019-06-09 17:00:00 21.3 5 Norte 10 Norte 0 -- -- 84
2019-06-09 16:00:00 21 9 Norte 13 Norte 0 -- -- 85
2019-06-09 15:00:00 21.4 7 Norte 12 Norte 0 -- -- 83
2019-06-09 14:00:00 21.9 6 Norte 13 Noroeste 0 -- -- 82
2019-06-09 13:00:00 21.8 6 Norte 13 Noroeste 0 -- -- 82
2019-06-09 12:00:00 21.5 8 Noroeste 21 Oeste 0 -- -- 80
2019-06-09 11:00:00 20.9 12 Oeste 23 Oeste 0 -- -- 79
2019-06-09 10:00:00 21.1 11 Oeste 22 Oeste 0 -- -- 76
2019-06-09 09:00:00 21.9 7 Noroeste 33 Oeste 0 -- -- 71
2019-06-09 08:00:00 20.6 13 Oeste 29 Oeste 0 -- -- 67
2019-06-09 07:00:00 19.2 4 Sudeste 12 Sur 0 -- -- 68
2019-06-09 06:00:00 18.1 6 Sur 12 Sudoeste 0 -- -- 71
2019-06-09 05:00:00 18.5 7 Sudoeste 14 Oeste 0 -- -- 71
2019-06-09 04:00:00 18.7 2 Sudeste 10 Sur 0 -- -- 72
2019-06-09 03:00:00 18.2 3 Nordeste 8 Noroeste 0 -- -- 75
2019-06-09 02:00:00 18 0 Calma 6 Sur 0 -- -- 64
2019-06-09 01:00:00 18.5 3 Noroeste 7 Sur 0 -- -- 74
2019-06-09 00:00:00 19.3 3 Sur 10 Sur 0 -- -- 58
2019-06-08 23:00:00 18.7 2 Nordeste 8 Este 0 -- -- 74
2019-06-08 22:00:00 18.7 4 Sudoeste 9 Nordeste 0 -- -- 68
2019-06-08 21:00:00 19.8 5 Nordeste 9 Nordeste 0 -- -- 71
2019-06-08 20:00:00 20.9 5 Nordeste 25 Nordeste 0 -- -- 66
2019-06-08 19:00:00 21.3 12 Nordeste 25 Nordeste 0 -- -- 65
2019-06-08 18:00:00 21 19 Nordeste 31 Nordeste 0 -- -- 64
2019-06-08 17:00:00 21.2 20 Nordeste 35 Nordeste 0 -- -- 62
2019-06-08 16:00:00 21.1 21 Nordeste 36 Nordeste 0 -- -- 63
2019-06-08 15:00:00 20.9 23 Nordeste 39 Nordeste 0 -- -- 65
2019-06-08 14:00:00 20.9 25 Nordeste 40 Nordeste 0 -- -- 63
2019-06-08 13:00:00 21.5 19 Nordeste 37 Nordeste 0 -- -- 64
2019-06-08 12:00:00 21.3 24 Nordeste 40 Nordeste 0 -- -- 62
2019-06-08 11:00:00 20.9 25 Nordeste 40 Nordeste 0 -- -- 63
2019-06-08 10:00:00 21.1 22 Nordeste 33 Nordeste 0 -- -- 57
2019-06-08 09:00:00 20.5 15 Nordeste 26 Nordeste 0 -- -- 56
2019-06-08 08:00:00 19.8 10 Nordeste 21 Nordeste 0 -- -- 67
2019-06-08 07:00:00 18.6 6 Sudeste 27 Este 0 -- -- 72
2019-06-08 06:00:00 18.9 10 Este 28 Este 0 -- -- 75
2019-06-08 05:00:00 18.7 4 Sudeste 10 Sudeste 0 -- -- 79
2019-06-08 04:00:00 18.9 6 Sudeste 21 Nordeste 0 -- -- 76
2019-06-08 03:00:00 20 6 Nordeste 29 Nordeste 0 -- -- 75
2019-06-08 02:00:00 20.2 10 Sudeste 34 Nordeste 0 -- -- 77
2019-06-08 01:00:00 20.5 5 Sur 21 Sudeste 0 -- -- 57
2019-06-08 00:00:00 22 13 Sudeste 30 Sudeste 0 -- -- 57
2019-06-07 23:00:00 22.7 18 Sudeste 33 Sudeste 0 -- -- 53
2019-06-07 22:00:00 22.7 13 Sudeste 19 Sur 0 -- -- 39
2019-06-07 21:00:00 24.1 5 Sudeste 12 Este 0 -- -- 36
2019-06-07 20:00:00 23.9 4 Norte 8 Norte 0 -- -- 45
2019-06-07 19:00:00 23.9 5 Norte 10 Noroeste 0 -- -- 43
2019-06-07 18:00:00 24.5 4 Norte 10 Norte 0 -- -- 40
2019-06-07 17:00:00 23.5 8 Norte 18 Oeste 0 -- -- 50
2019-06-07 16:00:00 23.3 13 Oeste 25 Oeste 0 -- -- 58
2019-06-07 15:00:00 22.6 15 Oeste 28 Sudoeste 0 -- -- 64
2019-06-07 14:00:00 23.2 18 Oeste 36 Sudoeste 0 -- -- 56
2019-06-07 13:00:00 23.3 20 Oeste 37 Oeste 0 -- -- 53
2019-06-07 12:00:00 22.4 21 Oeste 32 Oeste 0 -- -- 71
2019-06-07 11:00:00 22.7 9 Oeste 20 Oeste 0 -- -- 71
2019-06-07 10:00:00 21.4 6 Norte 12 Norte 0 -- -- 80
2019-06-07 09:00:00 21.7 7 Norte 12 Norte 0 -- -- 76
2019-06-07 08:00:00 21.7 4 Norte 12 Sur 0 -- -- 58
2019-06-07 07:00:00 19.5 7 Sur 13 Sur 0 -- -- 51
2019-06-07 06:00:00 19.4 6 Sur 18 Sudeste 0 -- -- 52
2019-06-07 05:00:00 20 5 Sur 35 Sur 0 -- -- 50
2019-06-07 04:00:00 21.4 12 Sudeste 60 Sudeste 0 -- -- 45
2019-06-07 03:00:00 21.7 28 Sudeste 50 Sudeste 0 -- -- 45
2019-06-07 02:00:00 21.3 12 Sudoeste 45 Sur 0 -- -- 50
2019-06-07 01:00:00 21.4 26 Sudeste 56 Sudeste 0 -- -- 51
2019-06-07 00:00:00 20.9 19 Sudeste 55 Sudeste 0 -- -- 56
2019-06-06 23:00:00 20.8 31 Sudeste 60 Sudeste 0 -- -- 64
2019-06-06 22:00:00 21.7 18 Sur 57 Sudeste 0 -- -- 56
2019-06-06 21:00:00 21.6 7 Sudoeste 16 Oeste 0 -- -- 66
2019-06-06 20:00:00 23 5 Noroeste 10 Norte 0 -- -- 58
2019-06-06 19:00:00 22.8 6 Norte 12 Noroeste 0 -- -- 56
2019-06-06 18:00:00 23.8 7 Norte 12 Noroeste 0 -- -- 53
2019-06-06 17:00:00 23.7 6 Norte 12 Norte 0 -- -- 52
2019-06-06 16:00:00 23 8 Norte 12 Norte 0 -- -- 55
2019-06-06 15:00:00 22.8 7 Norte 12 Noroeste 0 -- -- 56
2019-06-06 14:00:00 22.9 7 Norte 13 Norte 0 -- -- 57
2019-06-06 13:00:00 22.2 6 Norte 15 Noroeste 0 -- -- 56
2019-06-06 12:00:00 22.3 8 Oeste 17 Oeste 0 -- -- 58
2019-06-06 11:00:00 22.1 6 Noroeste 12 Noroeste 0 -- -- 53
2019-06-06 10:00:00 21.7 4 Norte 9 Norte 0 -- -- 50
2019-06-06 09:00:00 21.7 4 Norte 7 Sur 0 -- -- 48
2019-06-06 08:00:00 19.8 4 Sur 13 Sur 0 -- -- 47
2019-06-06 07:00:00 17.2 7 Sur 14 Sur 0 -- -- 48
2019-06-06 06:00:00 17 10 Sur 15 Sur 0 -- -- 50
2019-06-06 05:00:00 17.5 9 Sur 12 Sur 0 -- -- 53
2019-06-06 04:00:00 18.4 6 Sur 10 Sur 0 -- -- 53
2019-06-06 03:00:00 18.3 5 Sur 13 Sudoeste 0 -- -- 52
2019-06-06 02:00:00 18.3 9 Sur 12 Sur 0 -- -- 50
2019-06-06 01:00:00 18.7 9 Sur 12 Sudoeste 0 -- -- 52
2019-06-06 00:00:00 19.1 9 Sur 13 Sudoeste 0 -- -- 52
2019-06-05 23:00:00 19.8 5 Sur 16 Sur 0 -- -- 49
2019-06-05 22:00:00 19.7 5 Sudeste 13 Sur 0 -- -- 52
2019-06-05 21:00:00 20.1 0 Calma 16 Norte 0 -- -- 55
2019-06-05 20:00:00 22 17 Norte 26 Noroeste 0 -- -- 54
2019-06-05 19:00:00 22 9 Norte 33 Noroeste 0 -- -- 70
2019-06-05 18:00:00 23.6 16 Oeste 39 Oeste 0 -- -- 45
2019-06-05 17:00:00 24.4 15 Oeste 30 Oeste 0 -- -- 43
2019-06-05 16:00:00 24.7 17 Oeste 47 Sudoeste 0 -- -- 39
2019-06-05 15:00:00 23.9 19 Oeste 43 Sudoeste 0 -- -- 55
2019-06-05 14:00:00 23.9 21 Sudoeste 43 Oeste 0 -- -- 56
2019-06-05 13:00:00 24.7 18 Oeste 43 Oeste 0 -- -- 53
2019-06-05 12:00:00 25.1 8 Oeste 19 Oeste 0 -- -- 55
2019-06-05 11:00:00 22.9 7 Norte 17 Nordeste 0 -- -- 65
2019-06-05 10:00:00 22.1 6 Noroeste 15 Sudoeste 0 -- -- 73
2019-06-05 09:00:00 22.6 0 Calma 8 Nordeste 0 -- -- 73
2019-06-05 08:00:00 21.8 0 Calma 9 Sudoeste 0 -- -- 75
2019-06-05 07:00:00 18.7 4 Nordeste 13 Sur 0 -- -- 67
2019-06-05 06:00:00 18.3 6 Sudoeste 14 Sur 0 -- -- 55
2019-06-05 05:00:00 18.1 8 Sur 13 Sudoeste 0 -- -- 65
2019-06-05 04:00:00 18.7 6 Sur 13 Sur 0 -- -- 56
2019-06-05 03:00:00 18.7 6 Sur 14 Sur 0 -- -- 62
2019-06-05 02:00:00 18.9 6 Sur 11 Sur 0 -- -- 66
2019-06-05 01:00:00 19.1 5 Sur 14 Sur 0 -- -- 62
2019-06-05 00:00:00 19.3 7 Sur 12 Sur 0 -- -- 64
2019-06-04 23:00:00 19.8 6 Sur 11 Sudoeste 0 -- -- 65
2019-06-04 22:00:00 20 5 Sur 10 Sudoeste 0 -- -- 68
2019-06-04 21:00:00 22.5 0 Calma 8 Norte 0 -- -- 67
2019-06-04 20:00:00 23.5 3 Norte 13 Norte 0 -- -- 67
2019-06-04 19:00:00 23.3 6 Norte 12 Norte 0 -- -- 66
2019-06-04 18:00:00 23.7 8 Norte 25 Norte 0 -- -- 63
2019-06-04 17:00:00 23.6 14 Norte 22 Nordeste 0 -- -- 61
2019-06-04 16:00:00 23.6 12 Norte 24 Norte 0 -- -- 61
2019-06-04 15:00:00 23.2 9 Norte 17 Norte 0 -- -- 70
2019-06-04 14:00:00 24.1 6 Noroeste 23 Noroeste 0 -- -- 63
2019-06-04 13:00:00 26.3 4 Norte 13 Noroeste 0 -- -- 40
2019-06-04 12:00:00 25.6 5 Noroeste 11 Noroeste 0 -- -- 43
2019-06-04 11:00:00 25.4 2 Norte 9 Oeste 0 -- -- 36
2019-06-04 10:00:00 25.3 4 Oeste 12 Noroeste 0 -- -- 37
2019-06-04 09:00:00 25.1 0 Calma 7 Oeste 0 -- -- 40
2019-06-04 08:00:00 21.7 4 Sudoeste 13 Sur 0 -- -- 48
2019-06-04 07:00:00 18 6 Sur 14 Sur 0 -- -- 56
2019-06-04 06:00:00 17.6 8 Sur 14 Sur 0 -- -- 61
2019-06-04 05:00:00 17.8 9 Sur 13 Sur 0 -- -- 60
2019-06-04 04:00:00 18 9 Sur 15 Sur 0 -- -- 57
2019-06-04 03:00:00 18.4 8 Sur 13 Sur 0 -- -- 51
2019-06-04 02:00:00 18.7 8 Sur 14 Sur 0 -- -- 50
2019-06-04 01:00:00 19 10 Sur 15 Sur 0 -- -- 50
2019-06-04 00:00:00 19.3 9 Sur 14 Sur 0 -- -- 50
2019-06-03 23:00:00 19.6 10 Sur 13 Sur -- -- -- 53
2019-06-03 22:00:00 19.9 9 Sur 12 Sur 0 -- -- 60
2019-06-03 21:00:00 21.9 9 Sudoeste 12 Sudoeste 0 -- -- 70
2019-06-03 20:00:00 22.9 8 Norte 18 Norte 0 -- -- 72
2019-06-03 19:00:00 23.7 8 Norte 14 Norte 0 -- -- 67
2019-06-03 18:00:00 23.2 9 Norte 14 Norte 0 -- -- 67
2019-06-03 17:00:00 23.7 9 Norte 15 Norte 0 -- -- 64
2019-06-03 16:00:00 23.4 8 Norte 13 Norte 0 -- -- 65
2019-06-03 15:00:00 23.4 6 Norte 10 Norte 0 -- -- 66
2019-06-03 14:00:00 23.3 5 Norte 9 Noroeste 0 -- -- 65
2019-06-03 13:00:00 22.8 5 Norte 9 Norte 0 -- -- 65
2019-06-03 12:00:00 22.8 4 Norte 10 Noroeste 0 -- -- 61
2019-06-03 11:00:00 22.4 6 Norte 10 Norte 0 -- -- 61
2019-06-03 10:00:00 22.2 4 Norte 8 Norte 0 -- -- 61
2019-06-03 09:00:00 22.1 3 Norte 5 Noroeste 0 -- -- 65
2019-06-03 08:00:00 21.9 2 Sur 10 Sur 0 -- -- 51
2019-06-03 07:00:00 17.2 10 Sur 13 Sur 0 -- -- 59
2019-06-03 06:00:00 17 9 Sur 13 Sur 0 -- -- 60
2019-06-03 05:00:00 17.2 8 Sur 13 Sur 0 -- -- 59
2019-06-03 04:00:00 17.7 8 Sur 13 Sur 0 -- -- 55
2019-06-03 03:00:00 17.7 10 Sur 13 Sur 0 -- -- 54
2019-06-03 02:00:00 18.2 7 Sur 13 Sur 0 -- -- 53
2019-06-03 01:00:00 18.6 9 Sur 13 Sur 0 -- -- 52
2019-06-03 00:00:00 19 9 Sur 13 Sur 0 -- -- 53
2019-06-02 23:00:00 19.2 9 Sur 12 Sur 0 -- -- 57
2019-06-02 22:00:00 19.5 6 Sur 10 Sur 0 -- -- 60
2019-06-02 21:00:00 21.8 3 Norte 9 Norte 0 -- -- 64
2019-06-02 20:00:00 22.7 4 Norte 8 Noroeste 0 -- -- 61
2019-06-02 19:00:00 23.1 5 Norte 9 Norte 0 -- -- 61
2019-06-02 18:00:00 23.4 6 Norte 10 Norte 0 -- -- 58
2019-06-02 17:00:00 22.9 7 Norte 10 Norte 0 -- -- 59
2019-06-02 16:00:00 24.1 8 Norte 13 Norte 0 -- -- 61
2019-06-02 15:00:00 23.5 9 Norte 15 Norte 0 -- -- 67
2019-06-02 14:00:00 22.8 12 Norte 16 Norte 0 -- -- 63
2019-06-02 13:00:00 22.8 9 Norte 15 Norte 0 -- -- 68
2019-06-02 12:00:00 21.5 6 Norte 11 Nordeste 0 -- -- 72
2019-06-02 11:00:00 21.4 4 Norte 8 Norte 0 -- -- 64
2019-06-02 10:00:00 22.8 3 Noroeste 6 Noroeste 0 -- -- 40
2019-06-02 09:00:00 21.8 3 Noroeste 8 Oeste 0 -- -- 51
2019-06-02 08:00:00 20.4 0 Calma 11 Sur 0 -- -- 55
2019-06-02 07:00:00 16.4 6 Sur 12 Sudoeste 0 -- -- 51
2019-06-02 06:00:00 16.8 7 Sur 12 Sur 0 -- -- 48
2019-06-02 05:00:00 16.9 10 Sur 13 Sur 0 -- -- 47
2019-06-02 04:00:00 17.3 6 Sur 12 Sur 0 -- -- 49
2019-06-02 03:00:00 17.4 8 Sur 13 Sur 0 -- -- 51
2019-06-02 02:00:00 17.6 9 Sur 13 Sur 0 -- -- 52
2019-06-02 01:00:00 17.8 6 Sur 12 Sur 0 -- -- 61
2019-06-02 00:00:00 17.6 9 Sur 12 Sur 0 -- -- 69
2019-06-01 23:00:00 18.3 7 Sur 10 Sur 0 -- -- 71
2019-06-01 22:00:00 19.1 7 Sur 10 Sur 0 -- -- 70
2019-06-01 21:00:00 22.5 0 Calma 6 Norte 0 -- -- 59
2019-06-01 20:00:00 22.9 4 Norte 12 Norte 0 -- -- 60
2019-06-01 19:00:00 23.2 7 Norte 11 Norte 0 -- -- 60
2019-06-01 18:00:00 23.3 6 Noroeste 10 Norte 0 -- -- 59
2019-06-01 17:00:00 23 6 Norte 10 Norte 0 -- -- 61
2019-06-01 16:00:00 22.9 5 Norte 12 Noroeste 0 -- -- 59
2019-06-01 15:00:00 23.1 6 Norte 10 Norte 0 -- -- 61
2019-06-01 14:00:00 22.6 6 Norte 9 Noroeste 0 -- -- 63
2019-06-01 13:00:00 21.9 5 Norte 9 Noroeste 0 -- -- 64
2019-06-01 12:00:00 21.4 4 Norte 8 Norte 0 -- -- 67
2019-06-01 11:00:00 21.2 3 Norte 7 Noroeste 0 -- -- 69
2019-06-01 10:00:00 20.7 3 Norte 6 Norte 0 -- -- 71
2019-06-01 09:00:00 21.1 3 Norte 6 Nordeste 0 -- -- 67
2019-06-01 08:00:00 19.8 3 Sur 10 Sur 0 -- -- 67
2019-06-01 07:00:00 16.5 5 Sudeste 9 Sudeste 0 -- -- 77
2019-06-01 06:00:00 16.1 5 Sudeste 10 Sur 0 -- -- 77
2019-06-01 05:00:00 16 6 Sur 10 Sur 0 -- -- 74
2019-06-01 04:00:00 16.3 6 Sur 10 Sur 0 -- -- 71
2019-06-01 03:00:00 16.5 8 Sur 10 Sur 0 -- -- 68
2019-06-01 02:00:00 16.9 7 Sur 9 Sur 0 -- -- 66
2019-06-01 01:00:00 17.3 5 Sur 12 Sur 0 -- -- 65
2019-06-01 00:00:00 17.4 6 Sur 10 Sur 0 -- -- 63
2019-05-31 23:00:00 18 5 Sur 11 Sur 0 -- -- 59
2019-05-31 22:00:00 18.6 6 Sur 11 Sur 0 -- -- 56
2019-05-31 21:00:00 21.7 0 Calma 8 Norte 0 -- -- 54
2019-05-31 20:00:00 21.9 5 Norte 10 Norte 0 -- -- 54
2019-05-31 19:00:00 21.9 5 Norte 12 Norte 0 -- -- 54
2019-05-31 18:00:00 22.1 8 Norte 12 Norte 0 -- -- 54
2019-05-31 17:00:00 22.1 7 Norte 11 Noroeste 0 -- -- 58
2019-05-31 16:00:00 22.2 7 Norte 10 Norte 0 -- -- 56
2019-05-31 15:00:00 21.9 6 Norte 12 Norte 0 -- -- 56
2019-05-31 14:00:00 21.5 7 Norte 10 Norte 0 -- -- 59
2019-05-31 13:00:00 21 7 Norte 15 Norte 0 -- -- 56
2019-05-31 12:00:00 20.4 14 Norte 20 Norte 0 -- -- 51
2019-05-31 11:00:00 20.4 10 Norte 14 Norte 0 -- -- 51
2019-05-31 10:00:00 20.6 9 Norte 13 Norte 0 -- -- 52
2019-05-31 09:00:00 20.8 6 Nordeste 9 Nordeste 0 -- -- 51
2019-05-31 08:00:00 20 4 Sudeste 10 Este 0 -- -- 63
2019-05-31 07:00:00 16.1 6 Sur 9 Sur 0 -- -- 74
2019-05-31 06:00:00 15.7 6 Sur 12 Sur 0 -- -- 72
2019-05-31 05:00:00 15.5 8 Sur 12 Sur 0 -- -- 70
2019-05-31 04:00:00 15.5 9 Sur 12 Sur 0 -- -- 71
2019-05-31 03:00:00 15.7 10 Sur 13 Sur 0 -- -- 68
2019-05-31 02:00:00 16.1 9 Sur 12 Sur 0 -- -- 69
2019-05-31 01:00:00 16.5 9 Sur 13 Sudoeste 0 -- -- 65
2019-05-31 00:00:00 16.6 9 Sur 11 Sur 0 -- -- 65
2019-05-30 23:00:00 16.8 7 Sur 10 Sur 0 -- -- 59
2019-05-30 22:00:00 17.4 5 Sur 9 Oeste 0 -- -- 59
2019-05-30 21:00:00 20 5 Noroeste 16 Noroeste 0 -- -- 56
2019-05-30 20:00:00 21 9 Noroeste 17 Oeste 0 -- -- 51
2019-05-30 19:00:00 21.6 9 Noroeste 16 Oeste 0 -- -- 50
2019-05-30 18:00:00 21.7 8 Noroeste 16 Noroeste 0 -- -- 51
2019-05-30 17:00:00 20.7 7 Norte 11 Norte 0 -- -- 64
2019-05-30 16:00:00 20.8 5 Norte 11 Norte 0 -- -- 69
2019-05-30 15:00:00 21 6 Norte 11 Norte 0 -- -- 67
2019-05-30 14:00:00 20.1 5 Norte 12 Noroeste 0 -- -- 68
2019-05-30 13:00:00 20.2 6 Norte 10 Norte 0 -- -- 69
2019-05-30 12:00:00 20.3 6 Norte 12 Oeste 0 -- -- 69
2019-05-30 11:00:00 20 6 Noroeste 18 Noroeste 0 -- -- 68
2019-05-30 10:00:00 19.6 8 Oeste 15 Oeste 0 -- -- 71
2019-05-30 09:00:00 19 10 Oeste 18 Oeste 0 -- -- 70
2019-05-30 08:00:00 18.4 5 Sudoeste 17 Sudoeste 0 -- -- 73
2019-05-30 07:00:00 16.2 12 Sudoeste 19 Sudoeste 0 -- -- 78
2019-05-30 06:00:00 15.8 10 Sudoeste 17 Sudoeste 0 -- -- 78
2019-05-30 05:00:00 14.6 9 Sur 13 Sur 0 -- -- 78
2019-05-30 04:00:00 14.4 8 Sur 12 Sur 0 -- -- 77
2019-05-30 03:00:00 14.7 8 Sur 14 Sur 0 -- -- 75
2019-05-30 02:00:00 15.5 10 Sur 15 Sur 0 -- -- 73
2019-05-30 01:00:00 15.9 7 Sur 13 Sur 0 -- -- 69
2019-05-30 00:00:00 16.7 4 Sudoeste 16 Sur 0 -- -- 63
2019-05-29 23:00:00 16.2 7 Sur 13 Sur 0 -- -- 73
2019-05-29 22:00:00 16.5 6 Sur 10 Sudoeste 0 -- -- 75
2019-05-29 21:00:00 18.9 3 Norte 18 Sudoeste 0 -- -- 68
2019-05-29 20:00:00 19.4 11 Oeste 25 Oeste 0 -- -- 71
2019-05-29 19:00:00 19.8 12 Oeste 28 Oeste 0 -- -- 70
2019-05-29 18:00:00 20 10 Oeste 30 Sudoeste 0 -- -- 70
2019-05-29 17:00:00 20.2 13 Oeste 34 Oeste 0 -- -- 69
2019-05-29 16:00:00 19.7 18 Oeste 40 Oeste 0 -- -- 68
2019-05-29 15:00:00 20.1 9 Noroeste 25 Sudoeste 0 -- -- 65
2019-05-29 14:00:00 18.6 15 Oeste 23 Oeste 0 -- -- 72
2019-05-29 13:00:00 17.9 5 Oeste 15 Norte 0 -- -- 70
2019-05-29 12:00:00 19 7 Noroeste 13 Noroeste 0 -- -- 65
2019-05-29 11:00:00 17.2 6 Noroeste 13 Oeste 0 -- -- 70
2019-05-29 10:00:00 17.8 4 Noroeste 11 Sudoeste 0 -- -- 66
2019-05-29 09:00:00 17.7 3 Noroeste 9 Noroeste 0 -- -- 66
2019-05-29 08:00:00 17.8 2 Oeste 12 Sudoeste 0 -- -- 67
2019-05-29 07:00:00 14.7 9 Sudoeste 15 Sur 0 -- -- 74
2019-05-29 06:00:00 15.3 6 Sur 12 Sudoeste 0 -- -- 68
2019-05-29 05:00:00 16.9 7 Noroeste 23 Norte 0 -- -- 62
2019-05-29 04:00:00 17.4 9 Noroeste 23 Norte 0 -- -- 60
2019-05-29 03:00:00 17.9 10 Norte 24 Noroeste 0 -- -- 61
2019-05-29 02:00:00 17.5 10 Sudoeste 19 Sudoeste 0 -- -- 63
2019-05-29 01:00:00 16.7 8 Sur 13 Sur 0 -- -- 62
2019-05-29 00:00:00 17 6 Sur 15 Sudeste 0 -- -- 60
2019-05-28 23:00:00 17.5 7 Sudeste 13 Sudeste 0 -- -- 60
2019-05-28 22:00:00 17.8 2 Sur 21 Sudeste 0 -- -- 62
2019-05-28 21:00:00 18.3 5 Este 17 Nordeste 0 -- -- 63
2019-05-28 20:00:00 19.4 11 Nordeste 18 Nordeste 0 -- -- 61
2019-05-28 19:00:00 19.4 13 Norte 20 Norte 0 -- -- 64
2019-05-28 18:00:00 20 9 Norte 16 Norte 0 -- -- 63
2019-05-28 17:00:00 19.3 9 Norte 13 Norte 0 -- -- 65
2019-05-28 16:00:00 20 6 Norte 12 Norte 0 -- -- 64
2019-05-28 15:00:00 19.7 7 Norte 10 Noroeste 0 -- -- 64
2019-05-28 14:00:00 19.4 8 Norte 11 Norte 0 -- -- 68
2019-05-28 13:00:00 19 9 Norte 13 Norte 0 -- -- 69
2019-05-28 12:00:00 18.5 8 Norte 12 Norte 0 -- -- 71
2019-05-28 11:00:00 18.7 8 Norte 15 Norte 0 -- -- 70
2019-05-28 10:00:00 18.7 10 Norte 14 Noroeste 0 -- -- 75
2019-05-28 09:00:00 18.4 6 Norte 15 Norte 0 -- -- 78
2019-05-28 08:00:00 18.6 6 Sudoeste 16 Oeste 0 -- -- 87
2019-05-28 07:00:00 17.1 8 Sudoeste 13 Sudoeste 0 -- -- 86
2019-05-28 06:00:00 16.7 7 Sudoeste 12 Sudoeste 0 -- -- 81
2019-05-28 05:00:00 16.2 6 Sur 11 Sur 0 -- -- 79
2019-05-28 04:00:00 16.3 6 Sur 9 Sur 0 -- -- 77
2019-05-28 03:00:00 16.7 8 Sur 10 Sur 0 -- -- 72
2019-05-28 02:00:00 16.8 5 Sur 12 Sudeste 0 -- -- 70
2019-05-28 01:00:00 17.3 3 Sudeste 13 Sur 0 -- -- 70
2019-05-28 00:00:00 17.6 6 Sur 13 Sur 0 -- -- 64
2019-05-27 23:00:00 18.4 8 Sur 12 Sur 0 -- -- 66
2019-05-27 22:00:00 17.9 6 Sur 8 Sur 0 -- -- 71
2019-05-27 21:00:00 19.8 0 Calma 8 Noroeste 0 -- -- 70
2019-05-27 20:00:00 20.6 5 Norte 17 Oeste 0 -- -- 66
2019-05-27 19:00:00 21 10 Oeste 21 Oeste 0 -- -- 65
2019-05-27 18:00:00 20.5 15 Oeste 22 Noroeste 0 -- -- 72
2019-05-27 17:00:00 20.5 14 Oeste 25 Oeste 0 -- -- 72
2019-05-27 16:00:00 20.9 11 Noroeste 20 Oeste 0 -- -- 70
2019-05-27 15:00:00 21.7 6 Norte 14 Noroeste 0 -- -- 65
2019-05-27 14:00:00 21 8 Noroeste 17 Oeste 0 -- -- 66
2019-05-27 13:00:00 21.2 4 Norte 8 Norte 0 -- -- 69
2019-05-27 12:00:00 21 5 Norte 8 Norte 0 -- -- 64
2019-05-27 11:00:00 20.2 4 Norte 9 Noroeste 0 -- -- 66
2019-05-27 10:00:00 21.2 3 Norte 6 Nordeste 0 -- -- 57
2019-05-27 09:00:00 21.2 0 Calma 4 Sudeste 0 -- -- 57
2019-05-27 08:00:00 19.2 5 Sudeste 12 Sur 0 -- -- 68
2019-05-27 07:00:00 15.1 9 Sur 15 Sur 0 -- -- 75
2019-05-27 06:00:00 16.1 9 Sudoeste 18 Sudoeste 0 -- -- 71
2019-05-27 05:00:00 17.1 11 Sudoeste 23 Sudoeste 0 -- -- 69
2019-05-27 04:00:00 17.3 14 Sudoeste 24 Sudoeste 0 -- -- 67
2019-05-27 03:00:00 17 10 Sudoeste 21 Sudoeste 0 -- -- 69
2019-05-27 02:00:00 16.4 10 Sudoeste 19 Sudoeste 0 -- -- 77
2019-05-27 01:00:00 16.8 7 Sudoeste 18 Oeste 0 -- -- 78
2019-05-27 00:00:00 15.8 3 Sudeste 10 Sur 0 -- -- 70
2019-05-26 23:00:00 16.1 4 Sur 10 Sur 0 -- -- 69
2019-05-26 22:00:00 16.4 4 Sur 9 Sur 0 -- -- 72
2019-05-26 21:00:00 17 4 Sur 9 Sur 0 -- -- 81
2019-05-26 20:00:00 18.4 2 Norte 6 Noroeste 0 -- -- 82
2019-05-26 19:00:00 19.2 3 Norte 10 Norte 0 -- -- 78
2019-05-26 18:00:00 19.7 5 Norte 9 Norte 0 -- -- 80
2019-05-26 17:00:00 19.4 4 Norte 9 Norte 0 -- -- 82
2019-05-26 16:00:00 18.5 5 Norte 8 Norte 0 -- -- 85
2019-05-26 15:00:00 17.7 2 Noroeste 10 Norte 0 -- -- 85
2019-05-26 14:00:00 18.9 7 Norte 16 Norte 0 -- -- 80
2019-05-26 13:00:00 19.1 7 Noroeste 15 Oeste 0 -- -- 80
2019-05-26 12:00:00 18.2 7 Oeste 17 Oeste 0 -- -- 84
2019-05-26 11:00:00 17.2 4 Oeste 11 Oeste 0 -- -- 94
2019-05-26 10:00:00 16.3 4 Oeste 10 Norte 0.4 -- -- 96
2019-05-26 09:00:00 15.8 6 Norte 23 Norte 1 -- -- 94
2019-05-26 08:00:00 16.8 6 Norte 14 Norte 0 -- -- 88
2019-05-26 07:00:00 15.4 9 Sur 14 Sur 0 -- -- 91
2019-05-26 06:00:00 16.4 8 Sudoeste 22 Sur 0 -- -- 85
2019-05-26 05:00:00 16.3 12 Sudoeste 20 Sudoeste 0 -- -- 84
2019-05-26 04:00:00 15.8 11 Sudoeste 17 Sudoeste 0 -- -- 89
2019-05-26 03:00:00 16.2 6 Sudoeste 14 Sudoeste 0 -- -- 90
2019-05-26 02:00:00 15.8 5 Sudoeste 13 Sur 0 -- -- 82
2019-05-26 01:00:00 16.8 5 Sur 16 Sudeste 0 -- -- 78
2019-05-26 00:00:00 16.6 6 Sudeste 12 Sudeste 0 -- -- 84
2019-05-25 23:00:00 16.4 5 Sudeste 9 Sudeste 0 -- -- 87
2019-05-25 22:00:00 16.3 5 Sudeste 8 Sudeste 0 -- -- 89
2019-05-25 21:00:00 16.6 3 Este 8 Este 0 -- -- 90
2019-05-25 20:00:00 16.7 3 Este 12 Norte 0 -- -- 89
2019-05-25 19:00:00 16.9 7 Nordeste 18 Nordeste 0 -- -- 90
2019-05-25 18:00:00 16.8 10 Nordeste 19 Nordeste 0 -- -- 91
2019-05-25 17:00:00 17.3 9 Nordeste 19 Nordeste 0 -- -- 89
2019-05-25 16:00:00 16.1 12 Nordeste 27 Nordeste 0 -- -- 95
2019-05-25 15:00:00 15.8 18 Nordeste 28 Nordeste 0 -- -- 95
2019-05-25 14:00:00 16.1 14 Norte 26 Nordeste 0 -- -- 96
2019-05-25 13:00:00 15.9 18 Nordeste 31 Nordeste 0 -- -- 95
2019-05-25 12:00:00 16.5 17 Nordeste 28 Nordeste 0 -- -- 93
2019-05-25 11:00:00 16.5 10 Nordeste 19 Nordeste 0 -- -- 92
2019-05-25 10:00:00 16.2 11 Nordeste 22 Nordeste 0 -- -- 91
2019-05-25 09:00:00 15.9 9 Nordeste 19 Nordeste 0 -- -- 93
2019-05-25 08:00:00 15.4 13 Nordeste 24 Nordeste 0 -- -- 97
2019-05-25 07:00:00 15.4 15 Nordeste 23 Nordeste 0 -- -- 97
2019-05-25 06:00:00 15.5 3 Sudeste 12 Nordeste 0 -- -- 96
2019-05-25 05:00:00 15.4 3 Sudeste 9 Sudeste 0 -- -- 96
2019-05-25 04:00:00 15.3 2 Sudeste 8 Sur 0 -- -- 96
2019-05-25 03:00:00 15.3 3 Sur 8 Sudeste 0 -- -- 96
2019-05-25 02:00:00 15.5 4 Sur 8 Sudeste 0 -- -- 96
2019-05-25 01:00:00 15.5 4 Sudeste 7 Sudeste 0 -- -- 96
2019-05-25 00:00:00 15.6 3 Este 15 Norte 0 -- -- 96